createdAt,value
2017-08-27T00:02:40.889Z,32.65
2017-08-27T00:05:50.827Z,13.48
2017-08-27T00:09:01.045Z,12.80
2017-08-27T00:12:11.620Z,15.35
2017-08-27T00:15:22.429Z,13.93
2017-08-27T00:18:32.634Z,15.57
2017-08-27T00:21:43.529Z,16.50
2017-08-27T00:24:54.099Z,13.70
2017-08-27T00:28:04.065Z,18.95
2017-08-27T00:31:14.212Z,19.77
2017-08-27T00:34:24.953Z,14.07
2017-08-27T00:37:35.589Z,17.98
2017-08-27T00:40:45.969Z,20.60
2017-08-27T00:43:56.130Z,14.90
2017-08-27T01:02:53.585Z,15.10
2017-08-27T01:09:13.759Z,16.73
2017-08-27T01:12:24.406Z,17.83
2017-08-27T01:15:34.659Z,22.02
2017-08-27T01:18:45.038Z,16.20
2017-08-27T01:21:55.444Z,20.10
2017-08-27T01:25:05.256Z,16.77
2017-08-27T01:28:15.652Z,16.57
2017-08-27T01:31:27.259Z,17.85
2017-08-27T01:34:37.693Z,17.48
2017-08-27T01:37:48.252Z,20.57
2017-08-27T01:40:58.137Z,18.40
2017-08-27T01:44:08.721Z,15.53
2017-08-27T01:47:19.195Z,18.23
2017-08-27T01:50:29.616Z,25.77
2017-08-27T01:53:40.593Z,17.37
2017-08-27T01:56:51.337Z,18.73
2017-08-27T02:00:01.391Z,17.03
2017-08-27T02:03:12.133Z,17.75
2017-08-27T02:06:22.400Z,17.60
2017-08-27T02:09:33.545Z,16.05
2017-08-27T02:12:44.008Z,16.50
2017-08-27T02:15:54.358Z,19.10
2017-08-27T02:19:04.916Z,17.67
2017-08-27T02:22:14.836Z,18.10
2017-08-27T02:25:25.465Z,18.20
2017-08-27T02:28:35.717Z,19.42
2017-08-27T02:31:45.603Z,14.95
2017-08-27T02:34:55.980Z,18.20
2017-08-27T02:38:06.228Z,16.70
2017-08-27T02:41:17.312Z,15.23
2017-08-27T02:44:27.327Z,16.27
2017-08-27T02:47:37.725Z,16.13
2017-08-27T02:50:47.635Z,15.18
2017-08-27T02:53:58.056Z,22.20
2017-08-27T02:57:08.152Z,19.80
2017-08-27T03:00:18.873Z,17.95
2017-08-27T03:03:28.916Z,17.67
2017-08-27T03:06:39.445Z,20.90
2017-08-27T03:09:49.722Z,18.03
2017-08-27T03:12:59.687Z,20.62
2017-08-27T03:16:09.709Z,17.02
2017-08-27T03:19:19.324Z,21.90
2017-08-27T03:22:29.152Z,20.53
2017-08-27T03:25:40.085Z,19.95
2017-08-27T03:28:50.475Z,19.73
2017-08-27T03:32:00.533Z,19.92
2017-08-27T03:35:11.449Z,18.87
2017-08-27T03:38:22.730Z,24.08
2017-08-27T03:41:33.596Z,20.85
2017-08-27T03:44:44.037Z,19.67
2017-08-27T03:47:54.152Z,20.02
2017-08-27T03:51:04.514Z,20.37
2017-08-27T03:54:14.633Z,19.95
2017-08-27T03:57:24.696Z,19.98
2017-08-27T04:00:34.755Z,21.48
2017-08-27T04:03:45.124Z,21.12
2017-08-27T04:06:55.221Z,24.12
2017-08-27T04:10:05.364Z,29.17
2017-08-27T04:13:15.943Z,28.77
2017-08-27T04:16:26.561Z,21.80
2017-08-27T04:19:36.905Z,20.23
2017-08-27T04:22:47.037Z,24.50
2017-08-27T04:25:57.333Z,26.93
2017-08-27T04:29:07.585Z,25.30
2017-08-27T04:32:17.721Z,22.50
2017-08-27T04:35:28.429Z,29.95
2017-08-27T04:38:38.728Z,24.25
2017-08-27T04:41:49.101Z,27.70
2017-08-27T04:44:59.112Z,26.30
2017-08-27T04:48:08.904Z,24.17
2017-08-27T04:51:18.546Z,29.30
2017-08-27T04:54:29.095Z,26.70
2017-08-27T04:57:39.089Z,25.67
2017-08-27T05:00:48.960Z,27.95
2017-08-27T05:03:59.706Z,31.40
2017-08-27T05:07:09.780Z,35.17
2017-08-27T05:10:20.034Z,36.97
2017-08-27T05:13:30.094Z,29.10
2017-08-27T05:16:40.521Z,27.03
2017-08-27T05:19:51.187Z,26.05
2017-08-27T05:23:01.654Z,30.20
2017-08-27T05:26:11.781Z,35.45
2017-08-27T05:29:21.977Z,32.07
2017-08-27T05:32:32.124Z,34.53
2017-08-27T05:35:43.161Z,34.83
2017-08-27T05:38:52.745Z,31.17
2017-08-27T05:42:02.638Z,34.85
2017-08-27T05:45:12.645Z,24.67
2017-08-27T05:48:22.930Z,31.33
2017-08-27T05:51:33.265Z,32.00
2017-08-27T05:54:43.475Z,37.27
2017-08-27T05:57:53.490Z,31.80
2017-08-27T06:01:03.343Z,35.20
2017-08-27T06:04:14.397Z,37.53
2017-08-27T06:07:24.255Z,33.50
2017-08-27T06:10:34.701Z,30.63
2017-08-27T06:13:45.248Z,38.67
2017-08-27T06:16:55.584Z,37.28
2017-08-27T06:20:05.945Z,35.83
2017-08-27T06:23:16.207Z,34.70
2017-08-27T06:26:26.176Z,34.63
2017-08-27T06:29:36.760Z,32.43
2017-08-27T06:32:46.761Z,31.75
2017-08-27T06:35:57.217Z,31.10
2017-08-27T06:39:06.997Z,39.05
2017-08-27T06:42:17.655Z,33.97
2017-08-27T06:45:27.866Z,32.53
2017-08-27T06:48:37.576Z,34.08
2017-08-27T06:51:48.077Z,38.10
2017-08-27T06:54:58.243Z,34.67
2017-08-27T06:58:08.126Z,32.63
2017-08-27T07:04:27.865Z,36.15
2017-08-27T07:07:38.124Z,37.33
2017-08-27T07:10:48.601Z,25.83
2017-08-27T07:13:58.454Z,25.45
2017-08-27T07:17:08.618Z,29.65
2017-08-27T07:20:18.441Z,33.85
2017-08-27T22:12:52.149Z,13.73
2017-08-27T22:16:01.794Z,10.43
2017-08-27T22:19:12.097Z,11.43
2017-08-27T22:22:22.294Z,14.50
2017-08-27T22:25:32.684Z,12.88
2017-08-27T22:28:43.182Z,12.68
2017-08-27T22:31:53.718Z,12.37
2017-08-27T22:35:04.509Z,12.03
2017-08-27T22:38:14.534Z,10.30
2017-08-27T22:41:24.173Z,11.90
2017-08-27T22:44:35.058Z,12.07
2017-08-27T22:47:45.265Z,12.10
2017-08-27T22:50:55.449Z,10.90
2017-08-27T22:54:05.359Z,13.10
2017-08-27T22:57:15.889Z,12.47
2017-08-27T23:00:26.269Z,9.60
2017-08-27T23:03:36.199Z,16.35
2017-08-27T23:06:46.414Z,11.10
2017-08-27T23:09:56.757Z,10.03
2017-08-27T23:13:06.809Z,11.83
2017-08-27T23:16:17.543Z,12.85
2017-08-27T23:19:27.689Z,13.17
2017-08-27T23:22:37.989Z,11.23
2017-08-27T23:25:48.317Z,12.05
2017-08-27T23:28:59.749Z,11.33
2017-08-27T23:32:09.901Z,11.30
2017-08-27T23:35:20.559Z,14.27
2017-08-27T23:38:30.781Z,11.98
2017-08-27T23:41:40.816Z,11.40
2017-08-27T23:44:51.654Z,11.20
2017-08-27T23:48:01.694Z,13.52
2017-08-27T23:51:12.027Z,10.77
2017-08-27T23:54:22.286Z,12.30
2017-08-27T23:57:32.036Z,13.10
